Time;durP1;ratioP1;P1;durP2;ratioP2;P2;SDS_P1;SDS_P2;PMS_P1;PMS_P2;Temp;Humidity;BMP_temperature;BMP_pressure;BME280_temperature;BME280_humidity;BME280_pressure;Samples;Min_cycle;Max_cycle;Signal;HPM_P1;HPM_P2
2022/06/05 00:02:23;;;;;;;;;;;;;;;14.94;58.63;99763.25;5126744;27;19934;-73
2022/06/05 00:04:55;;;;;;;;;;;;;;;14.90;58.56;99763.03;5126267;27;19928;-74
2022/06/05 00:07:26;;;;;;;;;;;;;;;14.87;58.65;99753.47;5088879;27;19928;-73
2022/06/05 00:09:55;;;;;;;;;;;;;;;14.84;58.73;99748.59;5107339;27;19950;-74
2022/06/05 00:12:23;;;;;;;;;;;;;;;14.83;58.89;99746.13;5126200;27;19932;-73
2022/06/05 00:14:49;;;;;;;;;;;;;;;14.83;58.91;99748.88;5107961;27;19962;-73
2022/06/05 00:17:16;;;;;;;;;;;;;;;14.80;58.92;99738.47;5106792;27;20472;-74
2022/06/05 00:19:45;;;;;;;;;;;;;;;14.77;59.09;99739.09;5125619;27;19927;-73
2022/06/05 00:22:12;;;;;;;;;;;;;;;14.72;59.21;99740.81;5124624;27;19928;-74
2022/06/05 00:24:38;;;;;;;;;;;;;;;14.69;59.27;99735.88;5124229;27;19928;-73
2022/06/05 00:27:07;;;;;;;;;;;;;;;14.66;59.41;99736.50;5127222;27;19928;-74
2022/06/05 00:29:49;;;;;;;;;;;;;;;14.60;59.49;99733.03;5074284;27;20025;-71
2022/06/05 00:32:18;;;;;;;;;;;;;;;14.49;59.74;99712.31;5106171;27;20113;-72
2022/06/05 00:34:43;;;;;;;;;;;;;;;14.54;59.87;99714.16;5126355;27;20490;-72
2022/06/05 00:37:16;;;;;;;;;;;;;;;14.50;60.20;99711.19;5128441;27;20038;-72
2022/06/05 00:39:45;;;;;;;;;;;;;;;14.51;60.01;99709.28;5124496;27;19927;-73
2022/06/05 00:42:13;;;;;;;;;;;;;;;14.51;60.43;99710.06;5106045;27;20382;-72
2022/06/05 00:44:40;;;;;;;;;;;;;;;14.49;60.58;99706.81;5107451;27;20409;-73
2022/06/05 00:47:06;;;;;;;;;;;;;;;14.51;60.43;99712.03;5105136;27;19938;-72
2022/06/05 00:49:34;;;;;;;;;;;;;;;14.54;59.88;99711.41;5108624;27;19972;-73
2022/06/05 00:52:00;;;;;;;;;;;;;;;14.56;59.91;99711.91;5126086;27;19933;-72
2022/06/05 00:54:27;;;;;;;;;;;;;;;14.56;60.00;99710.00;5123930;27;19927;-73
2022/06/05 00:56:53;;;;;;;;;;;;;;;14.55;60.29;99700.13;5124535;27;19927;-72
2022/06/05 00:59:20;;;;;;;;;;;;;;;14.56;60.30;99701.75;5124454;27;19927;-74
2022/06/05 01:01:47;;;;;;;;;;;;;;;14.59;60.04;99700.31;5108232;27;19947;-73
2022/06/05 01:04:12;;;;;;;;;;;;;;;14.60;60.31;99701.97;5124525;27;20276;-73
2022/06/05 01:06:38;;;;;;;;;;;;;;;14.66;60.12;99694.41;5123384;27;19988;-73
2022/06/05 01:09:05;;;;;;;;;;;;;;;14.69;60.02;99696.56;5124996;27;19927;-73
2022/06/05 01:11:37;;;;;;;;;;;;;;;14.70;59.97;99695.44;5125779;27;20361;-73
2022/06/05 01:14:07;;;;;;;;;;;;;;;14.65;60.02;99692.75;5089948;27;20345;-74
2022/06/05 01:16:36;;;;;;;;;;;;;;;14.60;60.40;99690.97;5124704;27;20507;-74
2022/06/05 01:19:12;;;;;;;;;;;;;;;14.59;60.45;99697.53;5106348;27;19927;-73
2022/06/05 01:22:01;;;;;;;;;;;;;;;14.59;60.22;99690.13;5107905;28;19928;-75
2022/06/05 01:24:50;;;;;;;;;;;;;;;14.61;60.02;99693.38;5031076;28;20023;-73
2022/06/05 01:27:22;;;;;;;;;;;;;;;14.61;60.19;99687.09;5071963;28;20420;-74
2022/06/05 01:29:50;;;;;;;;;;;;;;;14.56;60.35;99690.75;5124196;27;20012;-74
2022/06/05 01:32:23;;;;;;;;;;;;;;;14.55;60.59;99694.63;5105688;27;20375;-73
2022/06/05 01:34:53;;;;;;;;;;;;;;;14.54;60.55;99684.72;5103894;27;19932;-72
2022/06/05 01:37:23;;;;;;;;;;;;;;;14.50;60.23;99691.94;5122631;27;19950;-73
2022/06/05 01:39:55;;;;;;;;;;;;;;;14.38;60.51;99677.88;5122656;27;20398;-73
2022/06/05 01:42:25;;;;;;;;;;;;;;;14.39;60.82;99683.06;5104669;28;19928;-73
2022/06/05 01:44:55;;;;;;;;;;;;;;;14.35;60.66;99684.81;5127504;27;19927;-74
2022/06/05 01:47:22;;;;;;;;;;;;;;;14.35;60.38;99686.72;5128778;27;19927;-73
2022/06/05 01:49:52;;;;;;;;;;;;;;;14.32;60.41;99669.72;5129681;27;19986;-74
2022/06/05 01:52:20;;;;;;;;;;;;;;;14.29;60.52;99667.56;5129499;27;19932;-73
2022/06/05 01:54:48;;;;;;;;;;;;;;;14.28;61.00;99676.13;5074282;27;19981;-75
2022/06/05 01:57:16;;;;;;;;;;;;;;;14.26;60.96;99670.94;5113714;27;20392;-72
2022/06/05 01:59:48;;;;;;;;;;;;;;;14.27;60.81;99669.81;5128926;27;19927;-73
2022/06/05 02:02:16;;;;;;;;;;;;;;;14.26;60.52;99659.09;5129491;27;19927;-73
2022/06/05 02:04:46;;;;;;;;;;;;;;;14.25;60.51;99663.81;5128454;27;19972;-72
2022/06/05 02:07:13;;;;;;;;;;;;;;;14.23;60.41;99668.78;5127148;27;19931;-73
2022/06/05 02:09:41;;;;;;;;;;;;;;;14.22;60.73;99669.09;5127785;27;19967;-72
2022/06/05 02:12:07;;;;;;;;;;;;;;;14.23;60.65;99665.22;5127544;27;20433;-74
2022/06/05 02:14:33;;;;;;;;;;;;;;;14.24;60.61;99673.16;5128247;27;19927;-71
2022/06/05 02:17:01;;;;;;;;;;;;;;;14.28;60.51;99673.38;5128326;27;20730;-73
2022/06/05 02:19:47;;;;;;;;;;;;;;;14.35;60.18;99667.47;5097875;27;19934;-73
2022/06/05 02:22:16;;;;;;;;;;;;;;;14.35;60.16;99670.22;5127115;27;19948;-72
2022/06/05 02:24:41;;;;;;;;;;;;;;;14.42;59.97;99663.19;5107402;27;19927;-73
2022/06/05 02:27:07;;;;;;;;;;;;;;;14.46;60.11;99660.66;5127240;27;19927;-73
2022/06/05 02:29:33;;;;;;;;;;;;;;;14.41;60.67;99664.31;5126596;27;19931;-72
2022/06/05 02:32:07;;;;;;;;;;;;;;;14.44;60.97;99668.41;5127367;27;19967;-73
2022/06/05 02:34:38;;;;;;;;;;;;;;;14.53;60.41;99661.09;5128574;27;19927;-73
2022/06/05 02:37:10;;;;;;;;;;;;;;;14.63;60.08;99653.75;5127575;27;19927;-71
2022/06/05 02:39:42;;;;;;;;;;;;;;;14.71;59.67;99662.13;5128141;27;20389;-72
2022/06/05 02:42:15;;;;;;;;;;;;;;;14.77;59.73;99662.84;5125930;27;20191;-72
2022/06/05 02:44:44;;;;;;;;;;;;;;;14.83;59.58;99653.38;5127599;27;19949;-73
2022/06/05 02:47:16;;;;;;;;;;;;;;;14.91;59.44;99657.34;5128955;27;19934;-74
2022/06/05 02:49:45;;;;;;;;;;;;;;;14.93;59.49;99663.34;5108210;27;19962;-73
2022/06/05 02:52:11;;;;;;;;;;;;;;;14.96;59.48;99661.91;5108027;27;19931;-73
2022/06/05 02:54:39;;;;;;;;;;;;;;;15.02;59.38;99656.00;5126389;27;19927;-73
2022/06/05 02:57:05;;;;;;;;;;;;;;;15.10;59.16;99651.69;5109091;27;19934;-74
2022/06/05 02:59:31;;;;;;;;;;;;;;;15.15;59.66;99650.78;5128459;27;19973;-73
2022/06/05 03:04:42;;;;;;;;;;;;;;;15.13;59.39;99645.56;5126074;27;19967;-76
2022/06/05 03:07:08;;;;;;;;;;;;;;;15.19;59.58;99645.47;5127375;27;19966;-74
2022/06/05 03:09:34;;;;;;;;;;;;;;;15.21;59.54;99638.50;5127309;27;20408;-74
2022/06/05 03:12:01;;;;;;;;;;;;;;;15.28;59.46;99636.16;5109135;27;20097;-74
2022/06/05 03:14:27;;;;;;;;;;;;;;;15.39;59.48;99641.44;5090812;27;20394;-74
2022/06/05 03:16:52;;;;;;;;;;;;;;;15.51;58.97;99640.88;5125320;27;20121;-75
2022/06/05 03:19:19;;;;;;;;;;;;;;;15.63;58.88;99638.38;5092330;27;20373;-74
2022/06/05 03:21:46;;;;;;;;;;;;;;;15.78;58.27;99645.44;5129602;27;19934;-75
2022/06/05 03:24:11;;;;;;;;;;;;;;;15.93;57.42;99629.69;5108944;27;19927;-74
2022/06/05 03:26:37;;;;;;;;;;;;;;;16.08;56.71;99629.28;5124744;27;20432;-74
2022/06/05 03:29:03;;;;;;;;;;;;;;;16.23;55.59;99619.78;5108540;27;19931;-74
2022/06/05 03:31:29;;;;;;;;;;;;;;;16.38;55.13;99618.56;5127201;27;20034;-73
2022/06/05 03:33:55;;;;;;;;;;;;;;;16.55;54.47;99617.00;5126384;27;19927;-73
2022/06/05 03:36:21;;;;;;;;;;;;;;;16.66;54.37;99612.00;5126496;27;19934;-74
2022/06/05 03:38:48;;;;;;;;;;;;;;;16.78;53.87;99614.13;5108414;27;19928;-73
2022/06/05 03:41:14;;;;;;;;;;;;;;;16.95;53.54;99616.94;5106921;27;19927;-73
2022/06/05 03:43:40;;;;;;;;;;;;;;;17.16;53.38;99608.06;5089616;27;19927;-74
2022/06/05 03:46:06;;;;;;;;;;;;;;;17.42;52.44;99610.03;5106150;27;20402;-73
2022/06/05 03:48:32;;;;;;;;;;;;;;;17.70;51.49;99609.66;5124649;27;19950;-74
2022/06/05 03:50:58;;;;;;;;;;;;;;;17.76;51.51;99605.59;5128364;27;20398;-73
2022/06/05 03:53:24;;;;;;;;;;;;;;;17.56;51.46;99599.59;5126201;27;20374;-73
2022/06/05 03:55:51;;;;;;;;;;;;;;;17.33;52.47;99590.69;5124591;27;20032;-71
2022/06/05 03:58:17;;;;;;;;;;;;;;;17.10;52.86;99599.09;5126550;27;19927;-72
2022/06/05 04:00:43;;;;;;;;;;;;;;;16.91;53.49;99596.63;5126570;27;20447;-73
2022/06/05 04:03:09;;;;;;;;;;;;;;;16.81;53.99;99591.41;5108261;27;19927;-73
2022/06/05 04:05:34;;;;;;;;;;;;;;;16.74;54.08;99597.41;5128605;27;19958;-74
2022/06/05 04:08:00;;;;;;;;;;;;;;;16.68;54.21;99593.97;5105925;27;19942;-75
2022/06/05 04:10:26;;;;;;;;;;;;;;;16.70;54.55;99590.88;5125080;27;19988;-74
2022/06/05 04:12:53;;;;;;;;;;;;;;;16.78;54.37;99586.50;5128686;27;19934;-74
2022/06/05 04:15:19;;;;;;;;;;;;;;;16.86;54.13;99582.97;5107273;27;19976;-74
2022/06/05 04:17:45;;;;;;;;;;;;;;;16.95;53.92;99580.22;5109915;27;19931;-75
2022/06/05 04:20:11;;;;;;;;;;;;;;;17.26;53.19;99580.13;5127839;27;19927;-74
2022/06/05 04:22:38;;;;;;;;;;;;;;;17.49;52.65;99585.44;5126070;27;20416;-75
2022/06/05 04:25:05;;;;;;;;;;;;;;;17.61;52.33;99584.78;5109885;27;19927;-73
2022/06/05 04:27:31;;;;;;;;;;;;;;;17.60;52.58;99591.44;5108140;27;20067;-73
2022/06/05 04:29:59;;;;;;;;;;;;;;;17.64;52.61;99589.69;5128569;27;19949;-74
2022/06/05 04:32:25;;;;;;;;;;;;;;;17.78;52.31;99580.34;5127700;27;19927;-73
2022/06/05 04:34:51;;;;;;;;;;;;;;;17.89;51.12;99581.63;5124509;27;19939;-74
2022/06/05 04:37:17;;;;;;;;;;;;;;;18.05;48.79;99584.72;5106469;27;19927;-75
2022/06/05 04:39:42;;;;;;;;;;;;;;;18.00;48.59;99577.38;5125757;27;20402;-73
2022/06/05 04:42:09;;;;;;;;;;;;;;;18.04;48.54;99587.81;5088304;28;19927;-73
2022/06/05 04:44:35;;;;;;;;;;;;;;;17.87;48.96;99597.75;5106860;28;20005;-73
2022/06/05 04:47:02;;;;;;;;;;;;;;;17.51;49.84;99598.97;5121118;27;19939;-73
2022/06/05 04:49:28;;;;;;;;;;;;;;;17.17;50.19;99609.69;5126116;27;19973;-74
2022/06/05 04:51:54;;;;;;;;;;;;;;;16.99;50.29;99612.44;5107790;27;19962;-73
2022/06/05 04:54:20;;;;;;;;;;;;;;;16.77;51.53;99629.88;5106137;27;19927;-73
2022/06/05 04:56:46;;;;;;;;;;;;;;;16.53;52.76;99609.03;5104850;27;19927;-73
2022/06/05 04:59:12;;;;;;;;;;;;;;;16.37;53.93;99619.69;5123271;27;20035;-74
2022/06/05 05:01:39;;;;;;;;;;;;;;;16.32;53.91;99613.50;5124521;27;19928;-74
2022/06/05 05:04:07;;;;;;;;;;;;;;;16.35;54.23;99629.41;5087495;27;20414;-74
2022/06/05 05:06:33;;;;;;;;;;;;;;;16.16;54.62;99616.69;5103083;27;19950;-73
2022/06/05 05:08:59;;;;;;;;;;;;;;;15.93;56.05;99626.94;5106066;27;19939;-74
2022/06/05 05:11:26;;;;;;;;;;;;;;;15.72;57.14;99657.75;5092920;27;19933;-73
2022/06/05 05:13:52;;;;;;;;;;;;;;;15.46;58.65;99666.59;5089560;27;19982;-74
2022/06/05 05:16:17;;;;;;;;;;;;;;;14.95;60.12;99674.03;5124118;27;19928;-74
2022/06/05 05:18:43;;;;;;;;;;;;;;;14.52;62.38;99669.63;5124104;27;19950;-73
2022/06/05 05:21:11;;;;;;;;;;;;;;;14.10;63.23;99666.81;5122536;27;19984;-74
2022/06/05 05:23:37;;;;;;;;;;;;;;;13.83;64.62;99658.19;5105135;27;20095;-73
2022/06/05 05:26:07;;;;;;;;;;;;;;;13.83;65.56;99658.19;5073125;28;19972;-73
2022/06/05 05:28:33;;;;;;;;;;;;;;;13.73;67.79;99655.63;5123933;27;19927;-72
2022/06/05 05:30:59;;;;;;;;;;;;;;;13.56;69.02;99700.09;5124388;27;19928;-73
2022/06/05 05:33:25;;;;;;;;;;;;;;;13.32;69.86;99707.25;5105140;28;20042;-73
2022/06/05 05:35:51;;;;;;;;;;;;;;;13.18;70.48;99704.44;4767027;27;9999726;-73
2022/06/05 05:38:18;;;;;;;;;;;;;;;13.16;70.92;99701.16;5121154;27;20038;-74
2022/06/05 05:43:28;;;;;;;;;;;;;;;13.23;71.16;99689.81;5101580;28;20254;-74
2022/06/05 05:45:54;;;;;;;;;;;;;;;13.27;71.03;99690.84;5118903;27;19937;-74
2022/06/05 05:48:20;;;;;;;;;;;;;;;13.40;72.16;99685.75;5121864;27;19951;-74
2022/06/05 05:50:46;;;;;;;;;;;;;;;13.46;72.41;99687.31;5102999;28;20283;-74
2022/06/05 05:53:11;;;;;;;;;;;;;;;13.45;72.52;99692.03;5118785;27;19928;-74
2022/06/05 05:55:39;;;;;;;;;;;;;;;13.46;73.26;99679.91;5121874;27;20027;-74
2022/06/05 05:58:04;;;;;;;;;;;;;;;13.46;74.08;99668.94;5121885;27;20453;-74
2022/06/05 06:00:30;;;;;;;;;;;;;;;13.42;75.33;99661.56;5120091;27;20027;-74
2022/06/05 06:02:57;;;;;;;;;;;;;;;13.34;77.60;99663.03;5101835;27;20472;-75
2022/06/05 06:05:23;;;;;;;;;;;;;;;13.25;79.52;99667.53;5084402;28;20014;-75
2022/06/05 06:07:49;;;;;;;;;;;;;;;13.22;80.70;99663.47;5116663;27;20473;-76
2022/06/05 06:10:15;;;;;;;;;;;;;;;13.22;80.86;99663.47;5118830;27;19928;-75
2022/06/05 06:12:42;;;;;;;;;;;;;;;13.22;81.52;99654.41;5119684;27;19962;-76
2022/06/05 06:15:09;;;;;;;;;;;;;;;13.24;81.86;99658.50;5084578;28;20016;-74
2022/06/05 06:17:34;;;;;;;;;;;;;;;13.29;81.83;99655.69;5119883;27;20410;-75
2022/06/05 06:20:00;;;;;;;;;;;;;;;13.40;81.33;99661.03;5118133;27;19946;-74
2022/06/05 06:22:26;;;;;;;;;;;;;;;13.52;80.83;99657.84;5120546;27;20442;-75
2022/06/05 06:24:52;;;;;;;;;;;;;;;13.65;80.01;99650.78;5100068;28;19949;-74
2022/06/05 06:27:18;;;;;;;;;;;;;;;13.85;79.16;99641.41;5119235;27;20441;-74
2022/06/05 06:29:45;;;;;;;;;;;;;;;14.00;78.35;99635.63;5099116;28;19927;-74
2022/06/05 06:32:11;;;;;;;;;;;;;;;14.08;77.44;99628.63;5104502;27;20081;-74
2022/06/05 06:34:37;;;;;;;;;;;;;;;14.00;76.82;99630.13;5122191;27;20021;-74
2022/06/05 06:37:03;;;;;;;;;;;;;;;13.86;76.88;99638.38;5122762;27;19946;-75
2022/06/05 06:39:28;;;;;;;;;;;;;;;13.88;76.80;99638.03;5143294;27;19927;-75
2022/06/05 06:41:58;;;;;;;;;;;;;;;14.16;76.17;99641.69;5135680;27;19927;-76
2022/06/05 06:44:25;;;;;;;;;;;;;;;14.60;75.12;99635.94;5123703;27;19941;-74
2022/06/05 06:46:52;;;;;;;;;;;;;;;14.97;73.94;99636.00;5122456;27;19992;-75
2022/06/05 06:49:18;;;;;;;;;;;;;;;15.23;72.56;99628.03;5125385;27;20099;-74
2022/06/05 06:51:44;;;;;;;;;;;;;;;15.53;71.52;99628.44;5105083;27;19931;-74
2022/06/05 06:54:10;;;;;;;;;;;;;;;16.07;70.38;99619.38;5068256;28;19981;-74
2022/06/05 06:56:36;;;;;;;;;;;;;;;16.36;68.42;99625.50;5105011;27;20248;-74
2022/06/05 06:59:03;;;;;;;;;;;;;;;16.97;66.65;99619.38;5124758;27;20028;-75
2022/06/05 07:01:29;;;;;;;;;;;;;;;17.28;64.19;99626.75;5103388;27;19928;-75
2022/06/05 07:03:56;;;;;;;;;;;;;;;17.26;64.22;99626.25;5105477;27;19934;-75
2022/06/05 07:06:22;;;;;;;;;;;;;;;17.28;64.03;99626.75;5122642;27;19935;-76
2022/06/05 07:08:49;;;;;;;;;;;;;;;17.17;62.14;99620.72;5104893;27;19927;-74
2022/06/05 07:11:16;;;;;;;;;;;;;;;17.03;62.38;99622.81;5121869;27;19927;-75
2022/06/05 07:13:42;;;;;;;;;;;;;;;16.97;62.61;99627.66;5120529;27;20313;-74
2022/06/05 07:16:09;;;;;;;;;;;;;;;16.98;61.95;99621.00;5121709;27;19935;-74
2022/06/05 07:18:35;;;;;;;;;;;;;;;17.47;60.53;99625.59;5122296;27;19928;-74
2022/06/05 07:21:08;;;;;;;;;;;;;;;17.90;59.29;99633.03;5102344;27;20333;-73
2022/06/05 07:23:34;;;;;;;;;;;;;;;17.98;59.08;99628.63;5098820;28;19927;-73
2022/06/05 07:26:00;;;;;;;;;;;;;;;17.61;59.56;99633.75;5101502;27;19934;-75
2022/06/05 07:28:26;;;;;;;;;;;;;;;17.08;60.60;99645.56;5099233;28;19927;-74
2022/06/05 07:30:52;;;;;;;;;;;;;;;16.70;62.06;99635.88;5101800;28;20026;-74
2022/06/05 07:33:18;;;;;;;;;;;;;;;16.39;62.73;99639.50;5103706;28;20027;-75
2022/06/05 07:35:44;;;;;;;;;;;;;;;16.29;62.73;99640.59;5102995;28;19928;-75
2022/06/05 07:38:11;;;;;;;;;;;;;;;16.24;62.26;99637.16;5099727;28;20560;-74
2022/06/05 07:40:38;;;;;;;;;;;;;;;16.30;62.13;99641.38;5099966;28;19935;-74
2022/06/05 07:43:03;;;;;;;;;;;;;;;16.32;62.13;99646.59;5102411;28;19938;-74
2022/06/05 07:45:29;;;;;;;;;;;;;;;16.36;61.97;99648.41;5103857;28;20428;-76
2022/06/05 07:47:55;;;;;;;;;;;;;;;16.28;61.92;99644.47;5104155;28;19928;-74
2022/06/05 07:50:21;;;;;;;;;;;;;;;15.91;62.47;99640.22;5103737;28;20417;-75
2022/06/05 07:55:33;;;;;;;;;;;;;;;16.52;61.31;99639.72;5086697;28;19963;-75
2022/06/05 07:58:00;;;;;;;;;;;;;;;17.29;59.33;99631.13;5085242;28;20370;-75
2022/06/05 08:00:26;;;;;;;;;;;;;;;18.08;56.66;99638.56;5097520;28;19931;-75
2022/06/05 08:02:51;;;;;;;;;;;;;;;18.78;53.68;99640.22;5100199;28;20313;-73
2022/06/05 08:05:17;;;;;;;;;;;;;;;18.95;53.19;99645.66;5098303;28;19950;-75
2022/06/05 08:07:43;;;;;;;;;;;;;;;18.90;53.53;99642.31;5096817;28;19927;-73
2022/06/05 08:10:09;;;;;;;;;;;;;;;18.48;54.13;99634.69;5099230;28;19931;-74
2022/06/05 08:12:36;;;;;;;;;;;;;;;18.36;54.59;99641.75;5099301;28;19934;-73
2022/06/05 08:15:05;;;;;;;;;;;;;;;18.81;52.78;99645.09;5081759;28;20345;-74
2022/06/05 08:17:32;;;;;;;;;;;;;;;19.50;50.06;99640.25;5103027;28;20078;-73
2022/06/05 08:19:58;;;;;;;;;;;;;;;19.49;49.82;99640.59;5094848;28;19934;-75
2022/06/05 08:22:25;;;;;;;;;;;;;;;18.76;50.38;99640.59;5071643;28;20255;-75
2022/06/05 08:24:54;;;;;;;;;;;;;;;17.75;53.00;99642.69;5099916;28;20072;-74
2022/06/05 08:27:23;;;;;;;;;;;;;;;16.73;55.67;99649.03;5102023;28;20012;-75
2022/06/05 08:29:50;;;;;;;;;;;;;;;16.28;57.39;99646.41;5101368;28;19927;-74
2022/06/05 08:32:16;;;;;;;;;;;;;;;15.88;59.13;99647.13;5095689;28;19955;-74
2022/06/05 08:34:43;;;;;;;;;;;;;;;15.65;60.45;99649.91;5098305;28;20343;-75
2022/06/05 08:42:45;;;;;;;;;;;;;;;14.94;65.44;99642.97;5104034;28;19972;-74
2022/06/05 08:45:18;;;;;;;;;;;;;;;15.24;64.83;99645.34;4742181;28;10000478;-75
2022/06/05 08:47:47;;;;;;;;;;;;;;;15.59;63.82;99645.63;5099926;28;20117;-75
2022/06/05 08:50:20;;;;;;;;;;;;;;;15.87;63.24;99643.56;5102261;28;20310;-75
2022/06/05 08:52:48;;;;;;;;;;;;;;;16.14;62.22;99641.00;5098812;28;19973;-74
2022/06/05 08:55:15;;;;;;;;;;;;;;;16.57;61.08;99642.31;5101873;28;19928;-75
2022/06/05 08:57:44;;;;;;;;;;;;;;;16.78;59.44;99637.03;5083739;28;19935;-75
2022/06/05 09:00:19;;;;;;;;;;;;;;;17.00;58.94;99638.06;5101363;28;20511;-74
2022/06/05 09:02:48;;;;;;;;;;;;;;;17.61;57.36;99640.06;5100911;28;19935;-75
2022/06/05 09:05:19;;;;;;;;;;;;;;;18.37;55.59;99642.53;5099543;28;20392;-75
2022/06/05 09:07:47;;;;;;;;;;;;;;;19.39;52.94;99633.50;5099017;28;19928;-75
2022/06/05 09:10:16;;;;;;;;;;;;;;;19.81;51.60;99632.63;5100489;28;19935;-75
2022/06/05 09:12:45;;;;;;;;;;;;;;;19.70;50.36;99630.31;5083098;28;20097;-76
2022/06/05 09:15:16;;;;;;;;;;;;;;;19.72;49.36;99623.59;5101547;28;19932;-75
2022/06/05 09:17:44;;;;;;;;;;;;;;;19.27;49.98;99629.50;5099637;28;19928;-75
2022/06/05 09:20:13;;;;;;;;;;;;;;;19.08;50.49;99635.53;5088951;28;19928;-75
2022/06/05 09:22:42;;;;;;;;;;;;;;;18.89;51.29;99630.41;5088069;28;20360;-75
2022/06/05 09:25:26;;;;;;;;;;;;;;;18.30;51.45;99626.44;5072637;28;19976;-75
2022/06/05 09:28:00;;;;;;;;;;;;;;;17.87;52.79;99633.69;5087860;28;20038;-75
2022/06/05 09:30:30;;;;;;;;;;;;;;;17.52;53.54;99631.78;5050401;28;19928;-76
2022/06/05 09:33:03;;;;;;;;;;;;;;;17.10;54.68;99628.69;5097401;28;20356;-75
2022/06/05 09:35:33;;;;;;;;;;;;;;;16.93;55.82;99637.72;5101360;28;19934;-75
2022/06/05 09:38:01;;;;;;;;;;;;;;;16.73;55.93;99643.50;5099095;28;19928;-74
2022/06/05 09:40:29;;;;;;;;;;;;;;;16.56;55.84;99640.69;5097740;28;19932;-74
2022/06/05 09:43:21;;;;;;;;;;;;;;;16.47;55.36;99646.19;5096700;28;19928;-75
2022/06/05 09:46:08;;;;;;;;;;;;;;;16.39;55.69;99649.72;5115068;27;19959;-75
2022/06/05 09:48:38;;;;;;;;;;;;;;;16.44;55.30;99655.09;5100081;28;19927;-75
2022/06/05 09:51:06;;;;;;;;;;;;;;;16.60;55.11;99655.47;5096011;28;20035;-75
2022/06/05 09:53:36;;;;;;;;;;;;;;;16.71;54.47;99654.06;5096859;28;19928;-76
2022/06/05 09:56:06;;;;;;;;;;;;;;;16.81;54.00;99652.94;5097843;28;20001;-75
2022/06/05 09:58:39;;;;;;;;;;;;;;;16.79;53.84;99655.22;5082977;28;19928;-75
2022/06/05 10:01:20;;;;;;;;;;;;;;;16.88;53.17;99646.97;5099483;28;19935;-75
2022/06/05 10:03:47;;;;;;;;;;;;;;;17.16;51.87;99649.50;5096422;28;19999;-73
2022/06/05 10:06:17;;;;;;;;;;;;;;;17.56;50.94;99640.25;5095041;28;19963;-74
2022/06/05 10:08:44;;;;;;;;;;;;;;;17.84;50.05;99637.13;5102213;28;20166;-73
2022/06/05 10:11:20;;;;;;;;;;;;;;;18.52;48.75;99641.19;5095959;28;19981;-73
2022/06/05 10:13:48;;;;;;;;;;;;;;;18.59;48.11;99633.16;5056236;28;19935;-73
2022/06/05 10:16:19;;;;;;;;;;;;;;;18.71;48.59;99632.44;5094932;28;20026;-73
2022/06/05 10:18:51;;;;;;;;;;;;;;;19.13;47.44;99640.06;5102057;28;20209;-75
2022/06/05 10:21:20;;;;;;;;;;;;;;;20.64;44.50;99634.69;5104811;28;19970;-75
2022/06/05 10:23:49;;;;;;;;;;;;;;;22.34;41.22;99636.00;5096197;28;19928;-74
2022/06/05 10:26:27;;;;;;;;;;;;;;;23.28;38.54;99640.22;5105493;28;19928;-75
2022/06/05 10:29:06;;;;;;;;;;;;;;;23.71;37.39;99627.16;5106850;28;19939;-75
2022/06/05 10:31:33;;;;;;;;;;;;;;;23.46;38.09;99633.03;5106668;28;20312;-75
2022/06/05 10:34:10;;;;;;;;;;;;;;;24.21;37.33;99635.72;5097643;28;20033;-75
2022/06/05 10:36:50;;;;;;;;;;;;;;;24.64;36.15;99637.59;5084306;28;19928;-75
2022/06/05 10:39:19;;;;;;;;;;;;;;;23.95;37.84;99625.22;5080390;28;19928;-75
2022/06/05 10:41:47;;;;;;;;;;;;;;;24.83;36.38;99633.94;4748349;28;9999751;-75
2022/06/05 10:44:17;;;;;;;;;;;;;;;24.08;37.44;99635.06;5104767;28;19952;-72
2022/06/05 10:46:47;;;;;;;;;;;;;;;23.32;38.39;99635.53;5103237;28;19982;-73
2022/06/05 10:49:17;;;;;;;;;;;;;;;22.46;39.83;99637.88;5103785;28;19934;-73
2022/06/05 10:51:48;;;;;;;;;;;;;;;21.68;41.78;99627.91;5095679;28;19950;-71
2022/06/05 10:54:28;;;;;;;;;;;;;;;22.36;40.09;99625.31;5102459;28;19928;-72
2022/06/05 10:56:58;;;;;;;;;;;;;;;23.63;38.17;99625.41;5104431;28;19928;-72
2022/06/05 10:59:42;;;;;;;;;;;;;;;24.16;36.58;99619.25;5101655;28;19971;-72
2022/06/05 11:02:22;;;;;;;;;;;;;;;24.16;36.28;99627.63;5102582;28;19934;-71
2022/06/05 11:04:57;;;;;;;;;;;;;;;22.30;39.26;99616.41;5103520;28;19980;-73
2022/06/05 11:07:36;;;;;;;;;;;;;;;21.30;41.69;99621.63;5104158;28;20022;-72
2022/06/05 11:10:05;;;;;;;;;;;;;;;22.07;39.30;99611.44;5092389;28;19938;-72
2022/06/05 11:15:26;;;;;;;;;;;;;;;24.73;34.90;99609.38;5083907;28;19928;-74
2022/06/05 11:18:02;;;;;;;;;;;;;;;26.71;31.62;99601.63;5064093;28;20326;-74
2022/06/05 11:20:30;;;;;;;;;;;;;;;28.16;29.19;99602.25;5084691;28;19939;-74
2022/06/05 11:22:58;;;;;;;;;;;;;;;29.29;27.32;99593.66;5096924;28;19932;-74
2022/06/05 11:25:27;;;;;;;;;;;;;;;28.23;28.37;99597.81;5107102;27;19927;-74
2022/06/05 11:27:59;;;;;;;;;;;;;;;27.24;29.46;99598.72;5127120;27;19955;-78
2022/06/05 11:30:29;;;;;;;;;;;;;;;26.02;31.22;99606.66;5111582;27;20398;-77
2022/06/05 11:32:58;;;;;;;;;;;;;;;24.92;33.35;99598.13;5109077;27;20287;-78
2022/06/05 11:35:31;;;;;;;;;;;;;;;24.60;33.81;99592.03;5097616;27;20037;-77
2022/06/05 11:38:04;;;;;;;;;;;;;;;25.31;31.96;99602.63;5109440;27;19927;-78
2022/06/05 11:40:46;;;;;;;;;;;;;;;25.74;31.53;99591.16;5104708;27;19962;-78
2022/06/05 11:43:26;;;;;;;;;;;;;;;26.41;30.88;99590.59;5102376;27;19927;-77
2022/06/05 11:45:55;;;;;;;;;;;;;;;27.64;29.31;99596.91;5116431;27;19935;-73
2022/06/05 11:48:25;;;;;;;;;;;;;;;26.18;31.52;99600.81;5112844;27;19931;-77
2022/06/05 11:50:57;;;;;;;;;;;;;;;24.92;33.13;99591.72;5098886;27;19928;-77
2022/06/05 11:53:30;;;;;;;;;;;;;;;23.45;34.77;99586.00;5120895;27;19928;-77
2022/06/05 11:55:58;;;;;;;;;;;;;;;24.29;33.46;99602.31;5117986;27;20392;-77
2022/06/05 11:58:28;;;;;;;;;;;;;;;25.51;31.49;99596.09;5075984;27;19928;-77
2022/06/05 12:00:55;;;;;;;;;;;;;;;26.18;30.14;99597.22;5099028;27;20344;-76
2022/06/05 12:03:25;;;;;;;;;;;;;;;26.19;30.15;99596.03;5086733;27;20362;-77
2022/06/05 12:05:55;;;;;;;;;;;;;;;26.47;29.75;99589.06;5125292;27;20034;-77
2022/06/05 12:08:23;;;;;;;;;;;;;;;26.78;29.98;99592.47;5105485;27;19931;-77
2022/06/05 12:11:02;;;;;;;;;;;;;;;27.44;28.68;99594.41;5023887;27;9999852;-77
2022/06/05 12:13:31;;;;;;;;;;;;;;;26.15;31.11;99590.34;5116373;27;19931;-77
2022/06/05 12:16:01;;;;;;;;;;;;;;;26.03;31.47;99594.25;5120555;27;19945;-78
2022/06/05 12:18:29;;;;;;;;;;;;;;;25.20;32.57;99591.28;5098758;27;19931;-77
2022/06/05 12:20:59;;;;;;;;;;;;;;;26.81;30.60;99586.06;5118900;27;20655;-77
2022/06/05 12:23:28;;;;;;;;;;;;;;;29.07;27.33;99581.69;5121286;27;20235;-77
2022/06/05 12:25:56;;;;;;;;;;;;;;;30.36;25.55;99575.72;5120611;27;20359;-77
2022/06/05 12:28:28;;;;;;;;;;;;;;;30.88;24.16;99572.00;5101282;27;20008;-77
2022/06/05 12:30:56;;;;;;;;;;;;;;;31.17;24.26;99580.13;5101086;27;20299;-78
2022/06/05 12:33:24;;;;;;;;;;;;;;;31.14;23.64;99578.16;5102064;27;19981;-78
2022/06/05 12:35:52;;;;;;;;;;;;;;;31.17;22.67;99568.84;5121103;27;20288;-77
2022/06/05 12:38:27;;;;;;;;;;;;;;;31.17;22.46;99565.22;5113141;27;20384;-77
2022/06/05 12:40:55;;;;;;;;;;;;;;;31.24;22.31;99577.25;5115785;27;20036;-78
2022/06/05 12:43:25;;;;;;;;;;;;;;;31.16;22.59;99572.09;5063389;27;19931;-77
2022/06/05 12:45:55;;;;;;;;;;;;;;;31.68;22.23;99557.69;5096759;27;19937;-76
2022/06/05 12:48:22;;;;;;;;;;;;;;;31.80;21.21;99562.00;5115387;27;20205;-76
2022/06/05 12:50:51;;;;;;;;;;;;;;;31.61;21.21;99557.00;5112059;27;19989;-75
2022/06/05 12:53:23;;;;;;;;;;;;;;;31.21;21.90;99561.16;5111458;27;19963;-77
2022/06/05 12:55:54;;;;;;;;;;;;;;;31.82;21.47;99548.22;5122173;27;20383;-78
2022/06/05 12:58:26;;;;;;;;;;;;;;;31.93;21.45;99553.72;5066835;28;19936;-78
2022/06/05 13:00:58;;;;;;;;;;;;;;;30.76;22.24;99556.41;5096883;28;19932;-77
2022/06/05 13:03:30;;;;;;;;;;;;;;;30.51;23.33;99553.84;5092332;28;20124;-76
2022/06/05 13:05:58;;;;;;;;;;;;;;;30.92;22.24;99552.22;5098047;28;19932;-77
2022/06/05 13:08:27;;;;;;;;;;;;;;;28.14;25.36;99558.84;5113760;27;19927;-77
2022/06/05 13:10:55;;;;;;;;;;;;;;;27.40;26.50;99564.72;5122198;27;20199;-77